createdAt,value
2022-11-17T00:02:21.369Z,2.15
2022-11-17T00:04:49.753Z,2.15
2022-11-17T00:07:18.000Z,2.15
2022-11-17T00:09:46.296Z,2.16
2022-11-17T00:12:33.508Z,2.17
2022-11-17T00:15:01.914Z,2.18
2022-11-17T00:17:30.207Z,2.19
2022-11-17T00:20:17.242Z,2.20
2022-11-17T00:22:45.632Z,2.20
2022-11-17T00:25:14.082Z,2.17
2022-11-17T00:27:42.404Z,2.15
2022-11-17T00:30:31.047Z,2.15
2022-11-17T00:33:24.762Z,2.15
2022-11-17T00:35:54.846Z,2.15
2022-11-17T00:38:23.217Z,2.15
2022-11-17T00:40:51.614Z,2.14
2022-11-17T00:43:19.898Z,2.12
2022-11-17T00:45:48.274Z,2.13
2022-11-17T00:48:17.267Z,2.14
2022-11-17T00:50:45.712Z,2.15
2022-11-17T00:53:13.960Z,2.16
2022-11-17T00:55:45.234Z,2.17
2022-11-17T00:58:13.581Z,2.15
2022-11-17T01:00:41.891Z,2.15
2022-11-17T01:03:10.180Z,2.13
2022-11-17T01:05:38.472Z,2.12
2022-11-17T01:08:06.750Z,2.12
2022-11-17T01:10:35.966Z,2.12
2022-11-17T01:13:04.477Z,2.12
2022-11-17T01:15:34.216Z,2.12
2022-11-17T01:18:03.202Z,2.12
2022-11-17T01:20:31.493Z,2.11
2022-11-17T01:22:59.844Z,2.10
2022-11-17T01:25:28.160Z,2.12
2022-11-17T01:27:56.486Z,2.12
2022-11-17T01:30:24.776Z,2.10
2022-11-17T01:32:53.180Z,2.09
2022-11-17T01:35:21.500Z,2.08
2022-11-17T01:37:49.801Z,2.08
2022-11-17T01:40:46.201Z,2.08
2022-11-17T01:43:14.557Z,2.07
2022-11-17T01:45:43.835Z,2.08
2022-11-17T01:48:13.912Z,2.09
2022-11-17T01:50:49.662Z,2.07
2022-11-17T01:53:20.408Z,2.06
2022-11-17T01:55:56.661Z,2.06
2022-11-17T01:58:31.602Z,2.05
2022-11-17T02:00:59.992Z,2.04
2022-11-17T02:03:33.172Z,2.03
2022-11-17T02:06:09.042Z,2.03
2022-11-17T02:08:40.358Z,2.05
2022-11-17T02:11:14.576Z,2.05
2022-11-17T02:13:42.912Z,2.04
2022-11-17T02:16:15.890Z,2.05
2022-11-17T02:18:46.062Z,2.05
2022-11-17T02:21:46.081Z,2.04
2022-11-17T02:24:41.774Z,2.04
2022-11-17T02:27:46.623Z,2.05
2022-11-17T02:30:20.988Z,2.04
2022-11-17T02:33:12.908Z,2.04
2022-11-17T02:36:24.516Z,2.01
2022-11-17T02:39:17.955Z,1.97
2022-11-17T02:41:55.165Z,1.96
2022-11-17T02:44:32.731Z,1.96
2022-11-17T02:47:17.287Z,1.98
2022-11-17T02:49:51.986Z,1.99
2022-11-17T02:52:21.826Z,1.97
2022-11-17T02:54:50.124Z,1.95
2022-11-17T02:57:39.262Z,1.94
2022-11-17T03:00:17.023Z,1.93
2022-11-17T03:03:38.911Z,1.91
2022-11-17T03:06:30.088Z,1.88
2022-11-17T03:09:22.283Z,1.88
2022-11-17T03:12:16.471Z,1.88
2022-11-17T03:15:03.392Z,1.88
2022-11-17T03:17:46.540Z,1.87
2022-11-17T03:20:23.404Z,1.86
2022-11-17T03:23:05.299Z,1.86
2022-11-17T03:25:38.055Z,1.87
2022-11-17T03:28:10.118Z,1.87
2022-11-17T03:30:42.405Z,1.87
2022-11-17T03:33:15.889Z,1.87
2022-11-17T03:35:50.985Z,1.85
2022-11-17T03:38:24.096Z,1.82
2022-11-17T03:41:16.650Z,1.79
2022-11-17T03:43:48.836Z,1.77
2022-11-17T03:46:20.425Z,1.76
2022-11-17T03:48:56.008Z,1.74
2022-11-17T03:51:28.759Z,1.70
2022-11-17T03:53:57.830Z,1.68
2022-11-17T03:57:01.855Z,1.64
2022-11-17T03:59:59.446Z,1.62
2022-11-17T04:02:28.550Z,1.61
2022-11-17T04:05:05.718Z,1.61
2022-11-17T04:07:42.527Z,1.59
2022-11-17T04:10:14.613Z,1.57
2022-11-17T04:13:01.831Z,1.54
2022-11-17T04:15:48.972Z,1.52
2022-11-17T04:18:17.355Z,1.52
2022-11-17T04:20:49.548Z,1.52
2022-11-17T04:23:17.909Z,1.53
2022-11-17T04:26:10.515Z,1.53
2022-11-17T04:28:45.649Z,1.52
2022-11-17T04:31:19.489Z,1.50
2022-11-17T04:33:48.662Z,1.50
2022-11-17T04:36:19.654Z,1.49
2022-11-17T04:38:50.524Z,1.50
2022-11-17T04:41:40.604Z,1.50
2022-11-17T04:44:11.393Z,1.48
2022-11-17T04:46:40.942Z,1.48
2022-11-17T04:49:09.287Z,1.47
2022-11-17T04:51:38.029Z,1.46
2022-11-17T04:54:08.272Z,1.46
2022-11-17T04:56:37.315Z,1.45
2022-11-17T04:59:06.257Z,1.46
2022-11-17T05:01:35.541Z,1.47
2022-11-17T05:04:07.394Z,1.48
2022-11-17T05:06:39.739Z,1.50
2022-11-17T05:09:10.479Z,1.50
2022-11-17T05:11:57.839Z,1.48
2022-11-17T05:14:27.452Z,1.48
2022-11-17T05:17:10.078Z,1.48
2022-11-17T05:19:44.581Z,1.49
2022-11-17T05:22:41.626Z,1.50
2022-11-17T05:25:10.507Z,1.48
2022-11-17T05:27:38.830Z,1.47
2022-11-17T05:30:08.880Z,1.47
2022-11-17T05:32:37.214Z,1.46
2022-11-17T05:35:06.034Z,1.45
2022-11-17T05:37:34.375Z,1.44
2022-11-17T05:41:13.430Z,1.44
2022-11-17T05:43:41.812Z,1.41
2022-11-17T05:46:10.541Z,1.41
2022-11-17T05:48:40.280Z,1.43
2022-11-17T05:51:08.677Z,1.42
2022-11-17T05:53:37.698Z,1.43
2022-11-17T05:56:12.218Z,1.43
2022-11-17T05:58:44.641Z,1.42
2022-11-17T06:01:15.256Z,1.42
2022-11-17T06:03:48.080Z,1.44
2022-11-17T06:06:16.455Z,1.44
2022-11-17T06:08:44.769Z,1.44
2022-11-17T06:11:13.203Z,1.43
2022-11-17T06:13:41.558Z,1.43
2022-11-17T06:16:12.960Z,1.42
2022-11-17T06:18:54.018Z,1.42
2022-11-17T06:21:22.958Z,1.43
2022-11-17T06:23:51.674Z,1.41
2022-11-17T06:26:20.617Z,1.40
2022-11-17T06:28:51.875Z,1.40
2022-11-17T06:31:20.806Z,1.41
2022-11-17T06:33:49.273Z,1.42
2022-11-17T06:36:17.772Z,1.41
2022-11-17T06:38:46.123Z,1.41
2022-11-17T06:41:15.534Z,1.42
2022-11-17T06:43:43.922Z,1.44
2022-11-17T06:46:12.348Z,1.46
2022-11-17T06:48:41.000Z,1.48
2022-11-17T06:51:09.260Z,1.47
2022-11-17T06:53:37.868Z,1.47
2022-11-17T06:56:09.907Z,1.47
2022-11-17T06:58:42.024Z,1.49
2022-11-17T07:01:14.253Z,1.48
2022-11-17T07:03:50.229Z,1.48
2022-11-17T07:12:44.183Z,1.48
2022-11-17T07:15:12.588Z,1.48
2022-11-17T07:17:40.954Z,1.49
2022-11-17T07:20:10.830Z,1.51
2022-11-17T07:36:05.854Z,1.60
2022-11-17T07:38:35.969Z,1.60
2022-11-17T07:57:28.992Z,1.59
2022-11-17T08:00:03.570Z,1.59
2022-11-17T08:02:32.921Z,1.58
2022-11-17T08:05:20.057Z,1.55
2022-11-17T08:10:57.310Z,1.56
2022-11-17T08:13:26.261Z,1.58
2022-11-17T08:16:00.863Z,1.55
2022-11-17T08:18:36.804Z,1.59
2022-11-17T08:21:08.772Z,1.60
2022-11-17T08:23:37.744Z,1.59
2022-11-17T08:26:08.280Z,1.58
2022-11-17T08:28:37.929Z,1.60
2022-11-17T08:31:08.130Z,1.61
2022-11-17T08:33:36.529Z,1.60
2022-11-17T08:36:07.382Z,1.61
2022-11-17T08:38:36.542Z,1.62
2022-11-17T08:41:08.286Z,1.63
2022-11-17T08:43:36.781Z,1.61
2022-11-17T08:46:06.663Z,1.63
2022-11-17T08:48:35.623Z,1.65
2022-11-17T08:51:09.153Z,1.68
2022-11-17T08:53:37.559Z,1.68
2022-11-17T08:56:10.849Z,1.67
2022-11-17T08:58:41.123Z,1.67
2022-11-17T09:01:16.240Z,1.69
2022-11-17T09:03:47.011Z,1.71
2022-11-17T09:06:18.323Z,1.71
2022-11-17T09:08:47.612Z,1.68
2022-11-17T09:11:16.995Z,1.66
2022-11-17T09:13:47.296Z,1.63
2022-11-17T09:16:17.265Z,1.60
2022-11-17T09:18:46.518Z,1.58
2022-11-17T09:21:16.274Z,1.58
2022-11-17T09:23:45.218Z,1.59
2022-11-17T09:26:16.126Z,1.59
2022-11-17T09:28:45.434Z,1.57
2022-11-17T09:31:16.782Z,1.58
2022-11-17T09:33:46.334Z,1.58
2022-11-17T09:36:16.663Z,1.70
2022-11-17T09:38:46.993Z,1.78
2022-11-17T09:41:48.532Z,1.84
2022-11-17T09:44:31.811Z,1.89
2022-11-17T09:47:02.994Z,1.91
2022-11-17T09:49:40.251Z,2.00
2022-11-17T09:52:49.881Z,2.11
2022-11-17T09:55:34.554Z,2.07
2022-11-17T09:58:34.572Z,2.08
2022-11-17T10:01:03.552Z,2.09
2022-11-17T10:03:37.430Z,2.10
2022-11-17T10:06:19.683Z,2.09
2022-11-17T10:08:53.581Z,2.06
2022-11-17T10:11:34.171Z,2.04
2022-11-17T10:14:04.551Z,2.04
2022-11-17T10:16:33.045Z,2.13
2022-11-17T10:19:23.219Z,2.21
2022-11-17T10:22:04.022Z,2.25
2022-11-17T10:24:50.680Z,2.23
2022-11-17T10:27:28.870Z,2.17
2022-11-17T10:30:15.413Z,2.15
2022-11-17T10:32:50.982Z,2.18
2022-11-17T10:35:30.624Z,2.23
2022-11-17T10:38:17.364Z,2.35
2022-11-17T10:40:52.437Z,2.46
2022-11-17T10:43:21.645Z,2.51
2022-11-17T10:45:57.396Z,2.55
2022-11-17T10:48:35.954Z,2.58
2022-11-17T10:51:29.472Z,2.57
2022-11-17T10:54:21.442Z,2.58
2022-11-17T10:56:56.481Z,2.43
2022-11-17T10:59:30.345Z,2.43
2022-11-17T11:01:58.841Z,2.47
2022-11-17T11:04:36.313Z,2.43
2022-11-17T11:07:24.755Z,2.41
2022-11-17T11:10:27.331Z,2.33
2022-11-17T11:13:41.011Z,2.23
2022-11-17T11:16:13.028Z,2.25
2022-11-17T11:18:41.338Z,2.32
2022-11-17T11:21:24.862Z,2.41
2022-11-17T11:24:04.195Z,2.47
2022-11-17T11:26:45.062Z,2.52
2022-11-17T11:29:23.829Z,2.48
2022-11-17T11:32:16.978Z,2.43
2022-11-17T11:34:58.327Z,2.49
2022-11-17T11:37:36.413Z,2.52
2022-11-17T11:40:24.494Z,2.52
2022-11-17T11:43:05.082Z,2.48
2022-11-17T11:46:11.621Z,2.47
2022-11-17T11:48:41.572Z,2.48
2022-11-17T11:51:19.992Z,2.55
2022-11-17T11:54:40.501Z,2.58
2022-11-17T11:57:22.722Z,2.52
2022-11-17T11:59:59.480Z,2.47
2022-11-17T12:02:40.784Z,2.43
2022-11-17T12:05:29.649Z,2.45
2022-11-17T12:08:02.591Z,2.46
2022-11-17T12:10:37.326Z,2.36
2022-11-17T12:13:06.202Z,2.30
2022-11-17T12:15:36.093Z,2.20
2022-11-17T12:18:18.979Z,2.13
2022-11-17T12:21:10.963Z,2.08
2022-11-17T12:24:03.888Z,2.09
2022-11-17T12:26:39.055Z,2.10
2022-11-17T12:29:22.421Z,2.05
2022-11-17T12:31:52.951Z,2.02
2022-11-17T12:34:34.374Z,2.02
2022-11-17T12:37:23.350Z,2.00
2022-11-17T12:40:12.229Z,2.01
2022-11-17T12:43:16.871Z,1.91
2022-11-17T12:46:16.470Z,1.90
2022-11-17T12:49:07.187Z,1.91
2022-11-17T12:51:41.548Z,1.88
2022-11-17T12:54:23.116Z,1.86
2022-11-17T12:57:11.740Z,1.82
2022-11-17T13:00:07.857Z,1.77
2022-11-17T13:02:48.186Z,1.73
2022-11-17T13:05:21.049Z,1.66
2022-11-17T13:07:49.823Z,1.62
2022-11-17T13:10:30.287Z,1.58
2022-11-17T13:13:13.240Z,1.55
2022-11-17T13:15:42.780Z,1.51
2022-11-17T13:18:18.436Z,1.48
2022-11-17T13:20:49.362Z,1.46
2022-11-17T13:23:26.638Z,1.41
2022-11-17T13:26:16.783Z,1.35
2022-11-17T13:28:46.145Z,1.29
2022-11-17T13:31:21.431Z,1.25
2022-11-17T13:34:05.305Z,1.25
2022-11-17T13:36:35.273Z,1.21
2022-11-17T13:39:04.132Z,1.18
2022-11-17T13:41:41.114Z,1.14
2022-11-17T13:44:18.769Z,1.10
2022-11-17T13:46:47.284Z,1.08
2022-11-17T13:49:35.047Z,1.05
2022-11-17T13:52:37.099Z,1.03
2022-11-17T13:55:20.497Z,1.00
2022-11-17T13:58:25.881Z,0.97
2022-11-17T14:01:00.609Z,0.93
2022-11-17T14:03:31.991Z,0.90
2022-11-17T14:06:00.422Z,0.86
2022-11-17T14:08:32.439Z,0.84
2022-11-17T14:11:10.306Z,0.81
2022-11-17T14:13:52.041Z,0.80
2022-11-17T14:16:27.518Z,0.78
2022-11-17T14:19:20.727Z,0.76
2022-11-17T14:22:14.300Z,0.77
2022-11-17T14:24:46.209Z,0.75
2022-11-17T14:27:38.981Z,0.72
2022-11-17T14:30:12.402Z,0.71
2022-11-17T14:32:40.787Z,0.70
2022-11-17T14:35:13.563Z,0.69
2022-11-17T14:37:47.060Z,0.68
2022-11-17T14:40:41.129Z,0.66
2022-11-17T14:43:10.228Z,0.63
2022-11-17T14:45:43.134Z,0.63
2022-11-17T14:48:16.175Z,0.62
2022-11-17T14:50:57.683Z,0.60
2022-11-17T14:53:30.719Z,0.59
2022-11-17T14:56:07.132Z,0.60
2022-11-17T14:58:36.290Z,0.60
2022-11-17T15:01:09.710Z,0.61
2022-11-17T15:03:38.209Z,0.60
2022-11-17T15:06:15.229Z,0.57
2022-11-17T15:08:46.853Z,0.54
2022-11-17T15:11:21.730Z,0.51
2022-11-17T15:13:50.432Z,0.51
2022-11-17T15:16:19.122Z,0.48
2022-11-17T15:18:48.992Z,0.46
2022-11-17T15:21:17.395Z,0.46
2022-11-17T15:23:46.272Z,0.46
2022-11-17T15:26:19.857Z,0.45
2022-11-17T15:28:48.239Z,0.42
2022-11-17T15:31:18.978Z,0.39
2022-11-17T15:33:48.575Z,0.40
2022-11-17T15:36:19.671Z,0.39
2022-11-17T15:38:48.214Z,0.37
2022-11-17T15:41:32.773Z,0.34
2022-11-17T15:44:01.585Z,0.30
2022-11-17T15:46:30.009Z,0.28
2022-11-17T15:48:58.560Z,0.27
2022-11-17T15:51:28.390Z,0.27
2022-11-17T15:53:58.989Z,0.24
2022-11-17T15:56:29.823Z,0.23
2022-11-17T15:59:03.426Z,0.22
2022-11-17T16:01:37.478Z,0.23
2022-11-17T16:04:06.900Z,0.24
2022-11-17T16:06:38.025Z,0.20
2022-11-17T16:09:07.203Z,0.17
2022-11-17T16:11:37.148Z,0.16
2022-11-17T16:14:06.236Z,0.14
2022-11-17T16:16:37.025Z,0.16
2022-11-17T16:19:06.334Z,0.14
2022-11-17T16:21:34.798Z,0.13
2022-11-17T16:24:03.623Z,0.12
2022-11-17T16:26:32.173Z,0.11
2022-11-17T16:29:02.679Z,0.08
2022-11-17T16:31:33.302Z,0.04
2022-11-17T16:34:07.386Z,0.03
2022-11-17T16:36:39.011Z,0.01
2022-11-17T16:39:10.091Z,-0.04
2022-11-17T16:41:41.017Z,-0.06
2022-11-17T16:44:14.918Z,-0.08
2022-11-17T16:46:44.558Z,-0.08
2022-11-17T16:49:17.229Z,-0.08
2022-11-17T16:51:52.128Z,-0.09
2022-11-17T16:54:21.312Z,-0.08
2022-11-17T16:56:49.851Z,-0.10
2022-11-17T16:59:18.545Z,-0.16
2022-11-17T17:01:48.117Z,-0.18
2022-11-17T17:04:16.484Z,-0.20
2022-11-17T17:06:46.016Z,-0.24
2022-11-17T17:09:18.040Z,-0.26
2022-11-17T17:11:49.883Z,-0.27
2022-11-17T17:14:18.288Z,-0.28
2022-11-17T17:16:46.751Z,-0.33
2022-11-17T17:19:16.451Z,-0.33
2022-11-17T17:24:38.283Z,-0.34
2022-11-17T17:27:07.879Z,-0.39
2022-11-17T17:29:36.834Z,-0.38
2022-11-17T17:32:05.537Z,-0.38
2022-11-17T17:34:34.425Z,-0.39
2022-11-17T17:37:03.100Z,-0.38
2022-11-17T17:39:33.113Z,-0.37
2022-11-17T17:42:02.725Z,-0.34
2022-11-17T17:44:31.905Z,-0.30
2022-11-17T17:47:01.314Z,-0.31
2022-11-17T17:49:29.848Z,-0.34
2022-11-17T17:51:59.138Z,-0.37
2022-11-17T17:54:27.675Z,-0.40
2022-11-17T17:56:58.592Z,-0.41
2022-11-17T17:59:28.395Z,-0.43
2022-11-17T18:01:57.377Z,-0.45
2022-11-17T18:04:26.695Z,-0.46
2022-11-17T18:06:58.208Z,-0.46
2022-11-17T18:09:27.454Z,-0.46
2022-11-17T18:12:00.533Z,-0.45
2022-11-17T18:14:29.711Z,-0.43
2022-11-17T18:16:59.209Z,-0.41
2022-11-17T18:19:32.702Z,-0.40
2022-11-17T18:22:03.717Z,-0.40
2022-11-17T18:24:32.998Z,-0.40
2022-11-17T18:27:02.447Z,-0.42
2022-11-17T18:29:31.650Z,-0.41
2022-11-17T18:32:01.589Z,-0.42
2022-11-17T18:34:39.691Z,-0.43
2022-11-17T18:37:09.008Z,-0.42
2022-11-17T18:39:39.063Z,-0.43
2022-11-17T18:42:09.143Z,-0.43
2022-11-17T18:44:38.622Z,-0.43
2022-11-17T18:47:09.029Z,-0.43
2022-11-17T18:49:40.536Z,-0.42
2022-11-17T18:52:11.379Z,-0.40
2022-11-17T18:54:41.028Z,-0.41
2022-11-17T18:57:10.436Z,-0.41
2022-11-17T18:59:40.002Z,-0.40
2022-11-17T19:02:09.514Z,-0.38
2022-11-17T19:04:39.178Z,-0.37
2022-11-17T19:07:09.146Z,-0.40
2022-11-17T19:09:38.781Z,-0.44
2022-11-17T19:12:10.519Z,-0.45
2022-11-17T19:14:41.724Z,-0.43
2022-11-17T19:17:10.849Z,-0.45
2022-11-17T19:19:39.683Z,-0.48
2022-11-17T19:22:09.572Z,-0.50
2022-11-17T19:24:41.060Z,-0.51
2022-11-17T19:27:11.315Z,-0.52
2022-11-17T19:29:42.221Z,-0.53
2022-11-17T19:32:12.798Z,-0.54
2022-11-17T19:34:42.522Z,-0.56
2022-11-17T19:37:12.267Z,-0.56
2022-11-17T19:39:42.706Z,-0.56
2022-11-17T19:42:13.026Z,-0.54
2022-11-17T19:44:42.946Z,-0.53
2022-11-17T19:47:12.395Z,-0.52
2022-11-17T19:49:47.791Z,-0.51
2022-11-17T19:52:19.853Z,-0.50
2022-11-17T19:54:50.149Z,-0.51
2022-11-17T19:57:19.242Z,-0.52
2022-11-17T19:59:49.283Z,-0.55
2022-11-17T20:02:22.908Z,-0.58
2022-11-17T20:04:55.152Z,-0.60
2022-11-17T20:07:24.652Z,-0.63
2022-11-17T20:09:56.078Z,-0.65
2022-11-17T20:12:27.725Z,-0.70
2022-11-17T20:14:57.194Z,-0.72
2022-11-17T20:17:28.271Z,-0.73
2022-11-17T20:20:00.318Z,-0.69
2022-11-17T20:22:38.421Z,-0.69
2022-11-17T20:25:09.308Z,-0.73
2022-11-17T20:27:45.139Z,-0.72
2022-11-17T20:30:18.933Z,-0.73
2022-11-17T20:32:52.748Z,-0.72
2022-11-17T20:35:21.567Z,-0.76
2022-11-17T20:37:50.463Z,-0.80
2022-11-17T20:40:23.196Z,-0.81
2022-11-17T20:42:54.053Z,-0.82
2022-11-17T20:45:24.185Z,-0.83
2022-11-17T20:47:53.071Z,-0.83
2022-11-17T20:50:22.614Z,-0.84
2022-11-17T20:52:51.674Z,-0.83
2022-11-17T20:55:25.278Z,-0.85
2022-11-17T20:57:54.481Z,-0.87
2022-11-17T21:00:23.084Z,-0.86
2022-11-17T21:02:52.060Z,-0.84
2022-11-17T21:05:20.992Z,-0.84
2022-11-17T21:07:49.939Z,-0.85
2022-11-17T21:10:19.004Z,-0.86
2022-11-17T21:12:47.675Z,-0.85
2022-11-17T21:15:16.181Z,-0.83
2022-11-17T21:18:03.384Z,-0.83
2022-11-17T21:20:33.727Z,-0.80
2022-11-17T21:23:02.330Z,-0.80
2022-11-17T21:25:31.626Z,-0.79
2022-11-17T21:27:59.948Z,-0.81
2022-11-17T21:30:28.413Z,-0.84
2022-11-17T21:32:57.154Z,-0.83
2022-11-17T21:35:26.073Z,-0.83
2022-11-17T21:37:55.978Z,-0.87
2022-11-17T21:40:26.725Z,-0.91
2022-11-17T21:42:55.383Z,-0.91
2022-11-17T21:45:23.824Z,-0.93
2022-11-17T21:47:56.590Z,-0.97
2022-11-17T21:50:27.761Z,-1.02
2022-11-17T21:52:56.320Z,-1.04
2022-11-17T21:55:25.049Z,-1.04
2022-11-17T21:57:53.474Z,-1.04
2022-11-17T22:00:21.997Z,-1.08
2022-11-17T22:02:50.407Z,-1.11
2022-11-17T22:05:18.724Z,-1.13
2022-11-17T22:07:47.044Z,-1.13
2022-11-17T22:10:15.785Z,-1.11
2022-11-17T22:12:44.177Z,-1.06
2022-11-17T22:15:12.531Z,-1.05
2022-11-17T22:17:40.839Z,-1.09
2022-11-17T22:20:10.561Z,-1.10
2022-11-17T22:22:38.886Z,-1.10
2022-11-17T22:25:23.137Z,-1.10
2022-11-17T22:27:55.602Z,-1.09
2022-11-17T22:30:23.949Z,-1.10
2022-11-17T22:32:52.248Z,-1.11
2022-11-17T22:35:20.557Z,-1.11
2022-11-17T22:37:49.834Z,-1.10
2022-11-17T22:40:45.442Z,-1.06
2022-11-17T22:43:15.468Z,-1.05
2022-11-17T22:45:44.173Z,-1.05
2022-11-17T22:48:12.539Z,-1.05
2022-11-17T22:50:40.956Z,-1.06
2022-11-17T22:53:09.232Z,-1.07
2022-11-17T22:55:37.631Z,-1.07
2022-11-17T22:58:06.205Z,-1.04
2022-11-17T23:00:34.488Z,-1.04
2022-11-17T23:03:02.911Z,-1.06
2022-11-17T23:05:31.991Z,-1.10
2022-11-17T23:08:03.054Z,-1.13
2022-11-17T23:10:33.717Z,-1.16
2022-11-17T23:13:02.065Z,-1.22
2022-11-17T23:15:32.361Z,-1.26
2022-11-17T23:18:00.680Z,-1.27
2022-11-17T23:20:29.069Z,-1.26
2022-11-17T23:22:57.429Z,-1.24
2022-11-17T23:25:25.739Z,-1.26
2022-11-17T23:27:54.042Z,-1.26
2022-11-17T23:30:22.845Z,-1.25
2022-11-17T23:32:54.684Z,-1.27
2022-11-17T23:35:23.546Z,-1.29
2022-11-17T23:37:51.936Z,-1.32
2022-11-17T23:40:20.476Z,-1.36
2022-11-17T23:42:48.819Z,-1.38
2022-11-17T23:45:17.239Z,-1.38
2022-11-17T23:47:45.595Z,-1.41
2022-11-17T23:50:13.865Z,-1.44
2022-11-17T23:52:42.180Z,-1.47
2022-11-17T23:55:10.498Z,-1.48
2022-11-17T23:57:39.723Z,-1.45
